sensor_id;sensor_type;location;lat;lon;timestamp;temperature;humidity
7920;DHT22;18778;47.610;9.776;2023-05-13T00:06:05;8.80;99.90
7920;DHT22;18778;47.610;9.776;2023-05-13T00:08:31;8.70;99.90
7920;DHT22;18778;47.610;9.776;2023-05-13T00:10:57;8.70;99.90
7920;DHT22;18778;47.610;9.776;2023-05-13T00:13:22;8.60;99.90
7920;DHT22;18778;47.610;9.776;2023-05-13T00:15:48;8.50;99.90
7920;DHT22;18778;47.610;9.776;2023-05-13T00:20:41;8.60;99.90
7920;DHT22;18778;47.610;9.776;2023-05-13T00:23:07;8.40;99.90
7920;DHT22;18778;47.610;9.776;2023-05-13T00:27:59;8.50;99.90
7920;DHT22;18778;47.610;9.776;2023-05-13T00:30:24;8.30;99.90
7920;DHT22;18778;47.610;9.776;2023-05-13T00:35:16;8.40;99.90
7920;DHT22;18778;47.610;9.776;2023-05-13T00:40:28;8.30;99.90
7920;DHT22;18778;47.610;9.776;2023-05-13T00:42:54;8.30;99.90
7920;DHT22;18778;47.610;9.776;2023-05-13T00:45:20;8.30;99.90
7920;DHT22;18778;47.610;9.776;2023-05-13T00:50:13;8.30;99.90
7920;DHT22;18778;47.610;9.776;2023-05-13T00:52:39;8.30;99.90
7920;DHT22;18778;47.610;9.776;2023-05-13T00:55:06;8.30;99.90
7920;DHT22;18778;47.610;9.776;2023-05-13T01:03:25;8.40;99.90
7920;DHT22;18778;47.610;9.776;2023-05-13T01:10:49;8.40;99.90
7920;DHT22;18778;47.610;9.776;2023-05-13T01:13:23;8.30;99.90
7920;DHT22;18778;47.610;9.776;2023-05-13T01:16:04;10.80;99.90
7920;DHT22;18778;47.610;9.776;2023-05-13T01:18:44;8.40;99.90
7920;DHT22;18778;47.610;9.776;2023-05-13T01:21:10;8.40;99.90
7920;DHT22;18778;47.610;9.776;2023-05-13T01:28:28;8.50;99.90
7920;DHT22;18778;47.610;9.776;2023-05-13T01:30:55;8.40;99.90
7920;DHT22;18778;47.610;9.776;2023-05-13T01:33:21;8.50;99.90
7920;DHT22;18778;47.610;9.776;2023-05-13T01:38:14;8.50;99.90
7920;DHT22;18778;47.610;9.776;2023-05-13T01:40:40;8.50;99.90
7920;DHT22;18778;47.610;9.776;2023-05-13T01:43:06;8.50;99.90
7920;DHT22;18778;47.610;9.776;2023-05-13T01:45:32;8.40;99.90
7920;DHT22;18778;47.610;9.776;2023-05-13T01:52:50;8.60;99.90
7920;DHT22;18778;47.610;9.776;2023-05-13T01:55:16;8.60;99.90
7920;DHT22;18778;47.610;9.776;2023-05-13T01:57:42;8.50;99.90
7920;DHT22;18778;47.610;9.776;2023-05-13T02:00:08;8.60;99.90
7920;DHT22;18778;47.610;9.776;2023-05-13T02:05:00;8.60;99.90
7920;DHT22;18778;47.610;9.776;2023-05-13T02:07:25;8.50;99.90
7920;DHT22;18778;47.610;9.776;2023-05-13T02:12:26;8.70;99.90
7920;DHT22;18778;47.610;9.776;2023-05-13T02:14:55;8.70;99.90
7920;DHT22;18778;47.610;9.776;2023-05-13T02:17:21;8.80;99.90
7920;DHT22;18778;47.610;9.776;2023-05-13T02:19:47;8.70;99.90
7920;DHT22;18778;47.610;9.776;2023-05-13T02:27:05;9.20;99.90
7920;DHT22;18778;47.610;9.776;2023-05-13T02:34:24;9.20;99.90
7920;DHT22;18778;47.610;9.776;2023-05-13T02:36:49;9.30;99.90
7920;DHT22;18778;47.610;9.776;2023-05-13T02:49:01;9.50;99.90
7920;DHT22;18778;47.610;9.776;2023-05-13T02:53:52;9.40;99.90
7920;DHT22;18778;47.610;9.776;2023-05-13T03:03:37;9.40;99.90
7920;DHT22;18778;47.610;9.776;2023-05-13T03:06:03;9.40;99.90
7920;DHT22;18778;47.610;9.776;2023-05-13T03:08:29;9.40;99.90
7920;DHT22;18778;47.610;9.776;2023-05-13T03:25:31;9.80;99.90
7920;DHT22;18778;47.610;9.776;2023-05-13T03:30:22;9.80;99.90
7920;DHT22;18778;47.610;9.776;2023-05-13T03:35:14;9.90;99.90
7920;DHT22;18778;47.610;9.776;2023-05-13T03:37:40;9.90;99.90
7920;DHT22;18778;47.610;9.776;2023-05-13T03:40:06;9.80;99.90
7920;DHT22;18778;47.610;9.776;2023-05-13T03:44:58;10.00;99.90
7920;DHT22;18778;47.610;9.776;2023-05-13T03:47:23;10.00;99.90
7920;DHT22;18778;47.610;9.776;2023-05-13T03:49:49;10.00;99.90
7920;DHT22;18778;47.610;9.776;2023-05-13T03:52:15;10.00;99.90
7920;DHT22;18778;47.610;9.776;2023-05-13T03:57:07;10.10;99.90
7920;DHT22;18778;47.610;9.776;2023-05-13T03:59:33;10.10;99.90
7920;DHT22;18778;47.610;9.776;2023-05-13T04:01:58;10.20;99.90
7920;DHT22;18778;47.610;9.776;2023-05-13T04:06:50;10.20;99.90
7920;DHT22;18778;47.610;9.776;2023-05-13T04:09:15;10.30;99.90
7920;DHT22;18778;47.610;9.776;2023-05-13T04:11:41;10.20;99.90
7920;DHT22;18778;47.610;9.776;2023-05-13T04:21:24;10.30;99.90
7920;DHT22;18778;47.610;9.776;2023-05-13T04:33:34;10.40;99.90
7920;DHT22;18778;47.610;9.776;2023-05-13T04:36:00;13.10;99.90
7920;DHT22;18778;47.610;9.776;2023-05-13T04:38:25;10.40;99.90
7920;DHT22;18778;47.610;9.776;2023-05-13T04:40:51;10.40;99.90
7920;DHT22;18778;47.610;9.776;2023-05-13T04:43:17;10.00;99.90
7920;DHT22;18778;47.610;9.776;2023-05-13T04:45:46;10.40;99.90
7920;DHT22;18778;47.610;9.776;2023-05-13T04:50:45;10.40;99.90
7920;DHT22;18778;47.610;9.776;2023-05-13T04:53:11;10.20;99.90
7920;DHT22;18778;47.610;9.776;2023-05-13T04:55:37;10.30;99.90
7920;DHT22;18778;47.610;9.776;2023-05-13T04:58:02;10.40;99.90
7920;DHT22;18778;47.610;9.776;2023-05-13T05:00:28;10.50;99.90
7920;DHT22;18778;47.610;9.776;2023-05-13T05:02:53;10.80;99.90
7920;DHT22;18778;47.610;9.776;2023-05-13T05:05:20;10.50;99.90
7920;DHT22;18778;47.610;9.776;2023-05-13T05:07:45;10.50;99.90
7920;DHT22;18778;47.610;9.776;2023-05-13T05:10:11;10.60;99.90
7920;DHT22;18778;47.610;9.776;2023-05-13T05:12:36;10.60;99.90
7920;DHT22;18778;47.610;9.776;2023-05-13T05:15:03;12.70;99.90
7920;DHT22;18778;47.610;9.776;2023-05-13T05:17:29;10.70;99.90
7920;DHT22;18778;47.610;9.776;2023-05-13T05:19:57;10.40;99.90
7920;DHT22;18778;47.610;9.776;2023-05-13T05:22:23;10.80;99.90
7920;DHT22;18778;47.610;9.776;2023-05-13T05:24:49;10.80;99.90
7920;DHT22;18778;47.610;9.776;2023-05-13T05:27:14;10.50;99.90
7920;DHT22;18778;47.610;9.776;2023-05-13T05:29:40;10.60;99.90
7920;DHT22;18778;47.610;9.776;2023-05-13T05:32:06;10.70;99.90
7920;DHT22;18778;47.610;9.776;2023-05-13T05:34:32;10.90;99.90
7920;DHT22;18778;47.610;9.776;2023-05-13T05:36:57;10.80;99.90
7920;DHT22;18778;47.610;9.776;2023-05-13T05:39:23;10.90;99.90
7920;DHT22;18778;47.610;9.776;2023-05-13T05:41:48;11.00;99.90
7920;DHT22;18778;47.610;9.776;2023-05-13T05:44:14;13.20;99.90
7920;DHT22;18778;47.610;9.776;2023-05-13T05:46:40;10.00;99.90
7920;DHT22;18778;47.610;9.776;2023-05-13T05:49:05;10.60;99.90
7920;DHT22;18778;47.610;9.776;2023-05-13T05:51:32;10.30;99.90
7920;DHT22;18778;47.610;9.776;2023-05-13T05:53:58;11.00;99.90
7920;DHT22;18778;47.610;9.776;2023-05-13T05:56:23;10.80;99.90
7920;DHT22;18778;47.610;9.776;2023-05-13T05:58:49;10.90;99.90
7920;DHT22;18778;47.610;9.776;2023-05-13T06:01:14;10.50;99.90
7920;DHT22;18778;47.610;9.776;2023-05-13T06:03:40;11.00;99.90
7920;DHT22;18778;47.610;9.776;2023-05-13T06:06:06;11.10;99.90
7920;DHT22;18778;47.610;9.776;2023-05-13T06:08:31;11.20;99.90
7920;DHT22;18778;47.610;9.776;2023-05-13T06:10:57;11.00;99.90
7920;DHT22;18778;47.610;9.776;2023-05-13T06:13:23;10.90;99.90
7920;DHT22;18778;47.610;9.776;2023-05-13T06:15:48;11.10;99.90
7920;DHT22;18778;47.610;9.776;2023-05-13T06:18:14;11.20;99.90
7920;DHT22;18778;47.610;9.776;2023-05-13T06:20:39;11.20;99.90
7920;DHT22;18778;47.610;9.776;2023-05-13T06:27:57;11.50;99.90
7920;DHT22;18778;47.610;9.776;2023-05-13T06:30:23;11.50;99.90
7920;DHT22;18778;47.610;9.776;2023-05-13T06:35:14;11.50;99.90
7920;DHT22;18778;47.610;9.776;2023-05-13T06:37:40;11.60;99.90
7920;DHT22;18778;47.610;9.776;2023-05-13T06:40:06;11.60;99.90
7920;DHT22;18778;47.610;9.776;2023-05-13T06:42:31;11.70;99.90
7920;DHT22;18778;47.610;9.776;2023-05-13T06:44:57;11.70;99.90
7920;DHT22;18778;47.610;9.776;2023-05-13T06:47:22;11.70;99.90
7920;DHT22;18778;47.610;9.776;2023-05-13T06:52:14;11.90;99.90
7920;DHT22;18778;47.610;9.776;2023-05-13T06:54:40;11.70;99.90
7920;DHT22;18778;47.610;9.776;2023-05-13T06:57:05;11.70;99.90
7920;DHT22;18778;47.610;9.776;2023-05-13T06:59:31;11.70;99.90
7920;DHT22;18778;47.610;9.776;2023-05-13T07:04:23;11.80;99.90
7920;DHT22;18778;47.610;9.776;2023-05-13T07:06:49;11.80;99.90
7920;DHT22;18778;47.610;9.776;2023-05-13T07:09:16;12.00;99.90
7920;DHT22;18778;47.610;9.776;2023-05-13T07:11:41;12.10;99.90
7920;DHT22;18778;47.610;9.776;2023-05-13T07:16:33;12.40;99.90
7920;DHT22;18778;47.610;9.776;2023-05-13T07:18:58;12.40;99.90
7920;DHT22;18778;47.610;9.776;2023-05-13T07:21:24;12.40;99.90
7920;DHT22;18778;47.610;9.776;2023-05-13T07:23:50;12.40;99.90
7920;DHT22;18778;47.610;9.776;2023-05-13T07:26:15;12.30;99.90
7920;DHT22;18778;47.610;9.776;2023-05-13T07:33:34;12.40;99.90
7920;DHT22;18778;47.610;9.776;2023-05-13T07:36:00;12.40;99.90
7920;DHT22;18778;47.610;9.776;2023-05-13T07:40:52;12.70;99.90
7920;DHT22;18778;47.610;9.776;2023-05-13T07:43:17;12.70;99.90
7920;DHT22;18778;47.610;9.776;2023-05-13T07:48:14;12.70;99.90
7920;DHT22;18778;47.610;9.776;2023-05-13T07:50:40;16.90;99.90
7920;DHT22;18778;47.610;9.776;2023-05-13T07:53:06;12.90;99.90
7920;DHT22;18778;47.610;9.776;2023-05-13T07:57:57;13.00;99.90
7920;DHT22;18778;47.610;9.776;2023-05-13T08:00:23;13.10;99.90
7920;DHT22;18778;47.610;9.776;2023-05-13T08:02:48;13.10;99.90
7920;DHT22;18778;47.610;9.776;2023-05-13T08:07:40;13.10;99.90
7920;DHT22;18778;47.610;9.776;2023-05-13T08:10:11;13.00;99.90
7920;DHT22;18778;47.610;9.776;2023-05-13T08:15:16;13.30;99.90
7920;DHT22;18778;47.610;9.776;2023-05-13T08:17:42;13.20;99.90
7920;DHT22;18778;47.610;9.776;2023-05-13T08:20:08;13.00;99.90
7920;DHT22;18778;47.610;9.776;2023-05-13T08:22:35;12.90;99.90
7920;DHT22;18778;47.610;9.776;2023-05-13T08:27:33;12.80;99.90
7920;DHT22;18778;47.610;9.776;2023-05-13T08:47:19;13.20;99.90
7920;DHT22;18778;47.610;9.776;2023-05-13T08:57:05;12.80;99.90
7920;DHT22;18778;47.610;9.776;2023-05-13T08:59:31;12.70;99.90
7920;DHT22;18778;47.610;9.776;2023-05-13T09:01:57;12.80;99.90
7920;DHT22;18778;47.610;9.776;2023-05-13T09:11:46;13.00;99.90
7920;DHT22;18778;47.610;9.776;2023-05-13T09:14:12;13.00;99.90
7920;DHT22;18778;47.610;9.776;2023-05-13T09:16:38;12.90;99.90
7920;DHT22;18778;47.610;9.776;2023-05-13T09:19:05;12.90;99.90
7920;DHT22;18778;47.610;9.776;2023-05-13T09:21:33;13.10;99.90
7920;DHT22;18778;47.610;9.776;2023-05-13T09:24:11;13.20;99.90
7920;DHT22;18778;47.610;9.776;2023-05-13T09:26:38;13.10;99.90
7920;DHT22;18778;47.610;9.776;2023-05-13T09:29:30;13.30;99.90
7920;DHT22;18778;47.610;9.776;2023-05-13T09:32:05;13.50;99.90
7920;DHT22;18778;47.610;9.776;2023-05-13T09:37:04;13.50;99.90
7920;DHT22;18778;47.610;9.776;2023-05-13T09:39:38;13.60;99.90
7920;DHT22;18778;47.610;9.776;2023-05-13T09:42:19;13.70;99.90
7920;DHT22;18778;47.610;9.776;2023-05-13T09:44:46;13.70;99.90
7920;DHT22;18778;47.610;9.776;2023-05-13T09:47:13;13.70;99.90
7920;DHT22;18778;47.610;9.776;2023-05-13T09:49:41;15.80;99.90
7920;DHT22;18778;47.610;9.776;2023-05-13T09:52:10;14.00;99.90
7920;DHT22;18778;47.610;9.776;2023-05-13T09:54:39;14.20;99.90
7920;DHT22;18778;47.610;9.776;2023-05-13T09:57:05;14.30;99.90
7920;DHT22;18778;47.610;9.776;2023-05-13T09:59:34;14.30;99.90
7920;DHT22;18778;47.610;9.776;2023-05-13T10:02:03;14.60;99.90
7920;DHT22;18778;47.610;9.776;2023-05-13T10:04:30;14.60;99.90
7920;DHT22;18778;47.610;9.776;2023-05-13T10:06:57;14.60;99.90
7920;DHT22;18778;47.610;9.776;2023-05-13T10:09:25;14.50;99.90
7920;DHT22;18778;47.610;9.776;2023-05-13T10:11:53;14.40;99.90
7920;DHT22;18778;47.610;9.776;2023-05-13T10:14:20;14.40;99.90
7920;DHT22;18778;47.610;9.776;2023-05-13T10:21:39;14.50;99.90
7920;DHT22;18778;47.610;9.776;2023-05-13T10:24:06;14.30;99.90
7920;DHT22;18778;47.610;9.776;2023-05-13T10:26:33;14.40;99.90
7920;DHT22;18778;47.610;9.776;2023-05-13T10:28:58;14.30;99.90
7920;DHT22;18778;47.610;9.776;2023-05-13T10:31:25;14.40;99.90
7920;DHT22;18778;47.610;9.776;2023-05-13T10:44:22;14.00;99.90
7920;DHT22;18778;47.610;9.776;2023-05-13T10:51:44;14.10;99.90
7920;DHT22;18778;47.610;9.776;2023-05-13T10:54:22;14.20;99.90
7920;DHT22;18778;47.610;9.776;2023-05-13T10:56:56;14.30;99.90
7920;DHT22;18778;47.610;9.776;2023-05-13T10:59:22;14.30;99.90
7920;DHT22;18778;47.610;9.776;2023-05-13T11:04:16;14.90;99.90
7920;DHT22;18778;47.610;9.776;2023-05-13T11:06:44;15.20;99.90
7920;DHT22;18778;47.610;9.776;2023-05-13T11:09:16;15.40;99.90
7920;DHT22;18778;47.610;9.776;2023-05-13T11:11:55;15.40;99.90
7920;DHT22;18778;47.610;9.776;2023-05-13T11:14:26;15.60;99.90
7920;DHT22;18778;47.610;9.776;2023-05-13T11:16:53;15.70;99.90
7920;DHT22;18778;47.610;9.776;2023-05-13T11:19:26;15.60;99.90
7920;DHT22;18778;47.610;9.776;2023-05-13T11:21:57;15.60;99.90
7920;DHT22;18778;47.610;9.776;2023-05-13T11:24:28;15.70;99.90
7920;DHT22;18778;47.610;9.776;2023-05-13T11:27:11;15.50;99.90
7920;DHT22;18778;47.610;9.776;2023-05-13T11:29:42;15.30;99.90
7920;DHT22;18778;47.610;9.776;2023-05-13T11:32:11;15.50;99.90
7920;DHT22;18778;47.610;9.776;2023-05-13T11:39:30;15.60;99.90
7920;DHT22;18778;47.610;9.776;2023-05-13T11:44:25;15.60;99.90
7920;DHT22;18778;47.610;9.776;2023-05-13T11:46:55;15.60;99.90
7920;DHT22;18778;47.610;9.776;2023-05-13T11:49:34;15.90;99.90
7920;DHT22;18778;47.610;9.776;2023-05-13T11:52:11;16.80;99.90
7920;DHT22;18778;47.610;9.776;2023-05-13T11:54:51;16.80;99.90
7920;DHT22;18778;47.610;9.776;2023-05-13T11:57:25;16.80;99.90
7920;DHT22;18778;47.610;9.776;2023-05-13T12:00:04;16.90;99.90
7920;DHT22;18778;47.610;9.776;2023-05-13T12:02:33;16.90;99.90
7920;DHT22;18778;47.610;9.776;2023-05-13T12:05:07;17.30;99.90
7920;DHT22;18778;47.610;9.776;2023-05-13T12:10:01;17.30;99.90
7920;DHT22;18778;47.610;9.776;2023-05-13T12:12:28;17.20;99.90
7920;DHT22;18778;47.610;9.776;2023-05-13T12:14:58;17.10;99.90
7920;DHT22;18778;47.610;9.776;2023-05-13T12:17:24;17.10;99.90
7920;DHT22;18778;47.610;9.776;2023-05-13T12:20:22;17.00;99.90
7920;DHT22;18778;47.610;9.776;2023-05-13T12:22:50;16.80;99.90
7920;DHT22;18778;47.610;9.776;2023-05-13T12:25:39;16.70;99.90
7920;DHT22;18778;47.610;9.776;2023-05-13T12:28:18;16.80;99.90
7920;DHT22;18778;47.610;9.776;2023-05-13T12:30:55;16.50;99.90
7920;DHT22;18778;47.610;9.776;2023-05-13T12:35:52;15.70;99.90
7920;DHT22;18778;47.610;9.776;2023-05-13T12:38:20;15.70;99.90
7920;DHT22;18778;47.610;9.776;2023-05-13T12:40:48;15.50;99.90
7920;DHT22;18778;47.610;9.776;2023-05-13T12:43:15;15.30;99.90
7920;DHT22;18778;47.610;9.776;2023-05-13T12:45:43;15.20;99.90
7920;DHT22;18778;47.610;9.776;2023-05-13T12:55:28;14.40;99.90
7920;DHT22;18778;47.610;9.776;2023-05-13T12:57:55;13.90;99.90
7920;DHT22;18778;47.610;9.776;2023-05-13T13:00:22;13.80;99.90
7920;DHT22;18778;47.610;9.776;2023-05-13T13:05:14;13.70;99.90
7920;DHT22;18778;47.610;9.776;2023-05-13T13:07:39;13.60;99.90
7920;DHT22;18778;47.610;9.776;2023-05-13T13:10:07;13.50;99.90
7920;DHT22;18778;47.610;9.776;2023-05-13T13:22:17;13.80;99.90
7920;DHT22;18778;47.610;9.776;2023-05-13T13:24:43;13.80;99.90
7920;DHT22;18778;47.610;9.776;2023-05-13T13:27:10;14.00;99.90
7920;DHT22;18778;47.610;9.776;2023-05-13T13:32:02;14.30;99.90
7920;DHT22;18778;47.610;9.776;2023-05-13T13:34:27;14.30;99.90
7920;DHT22;18778;47.610;9.776;2023-05-13T13:36:53;14.40;99.90
7920;DHT22;18778;47.610;9.776;2023-05-13T13:41:44;14.50;99.90
7920;DHT22;18778;47.610;9.776;2023-05-13T13:49:03;14.70;99.90
7920;DHT22;18778;47.610;9.776;2023-05-13T13:53:56;14.90;99.90
7920;DHT22;18778;47.610;9.776;2023-05-13T13:58:53;14.80;99.90
7920;DHT22;18778;47.610;9.776;2023-05-13T14:01:18;14.80;99.90
7920;DHT22;18778;47.610;9.776;2023-05-13T14:06:10;14.90;99.90
7920;DHT22;18778;47.610;9.776;2023-05-13T14:11:02;14.90;99.90
7920;DHT22;18778;47.610;9.776;2023-05-13T14:13:28;15.10;99.90
7920;DHT22;18778;47.610;9.776;2023-05-13T14:15:53;15.10;99.90
7920;DHT22;18778;47.610;9.776;2023-05-13T14:18:19;15.10;99.90
7920;DHT22;18778;47.610;9.776;2023-05-13T14:20:44;15.30;99.90
7920;DHT22;18778;47.610;9.776;2023-05-13T14:23:11;15.50;99.90
7920;DHT22;18778;47.610;9.776;2023-05-13T14:30:29;15.70;99.90
7920;DHT22;18778;47.610;9.776;2023-05-13T14:32:54;15.50;99.90
7920;DHT22;18778;47.610;9.776;2023-05-13T14:35:20;15.50;99.90
7920;DHT22;18778;47.610;9.776;2023-05-13T14:45:05;15.30;99.90
7920;DHT22;18778;47.610;9.776;2023-05-13T14:49:56;15.30;99.90
7920;DHT22;18778;47.610;9.776;2023-05-13T14:57:14;14.90;99.90
7920;DHT22;18778;47.610;9.776;2023-05-13T14:59:40;14.70;99.90
7920;DHT22;18778;47.610;9.776;2023-05-13T15:02:05;14.80;99.90
7920;DHT22;18778;47.610;9.776;2023-05-13T15:06:57;15.10;99.90
7920;DHT22;18778;47.610;9.776;2023-05-13T15:09:23;15.20;99.90
7920;DHT22;18778;47.610;9.776;2023-05-13T15:24:00;15.30;99.90
7920;DHT22;18778;47.610;9.776;2023-05-13T15:33:44;14.50;99.90
7920;DHT22;18778;47.610;9.776;2023-05-13T15:36:09;14.20;99.90
7920;DHT22;18778;47.610;9.776;2023-05-13T15:38:35;14.10;99.90
7920;DHT22;18778;47.610;9.776;2023-05-13T15:45:55;14.30;99.90
7920;DHT22;18778;47.610;9.776;2023-05-13T15:50:46;14.60;99.90
7920;DHT22;18778;47.610;9.776;2023-05-13T15:53:12;15.10;99.90
7920;DHT22;18778;47.610;9.776;2023-05-13T15:58:04;15.40;99.90
7920;DHT22;18778;47.610;9.776;2023-05-13T16:00:29;15.60;99.90
7920;DHT22;18778;47.610;9.776;2023-05-13T16:02:55;15.90;99.90
7920;DHT22;18778;47.610;9.776;2023-05-13T16:05:21;16.00;99.90
7920;DHT22;18778;47.610;9.776;2023-05-13T16:07:46;16.20;99.90
7920;DHT22;18778;47.610;9.776;2023-05-13T16:15:06;16.60;99.90
7920;DHT22;18778;47.610;9.776;2023-05-13T16:24:52;15.00;99.90
7920;DHT22;18778;47.610;9.776;2023-05-13T16:27:17;14.80;99.90
7920;DHT22;18778;47.610;9.776;2023-05-13T16:37:03;15.20;99.90
7920;DHT22;18778;47.610;9.776;2023-05-13T16:39:29;15.10;99.90
7920;DHT22;18778;47.610;9.776;2023-05-13T16:41:54;15.10;99.90
7920;DHT22;18778;47.610;9.776;2023-05-13T16:51:41;14.80;99.90
7920;DHT22;18778;47.610;9.776;2023-05-13T16:56:32;14.60;99.90
7920;DHT22;18778;47.610;9.776;2023-05-13T16:58:58;14.40;99.90
7920;DHT22;18778;47.610;9.776;2023-05-13T17:01:23;14.00;99.90
7920;DHT22;18778;47.610;9.776;2023-05-13T17:03:49;14.20;99.90
7920;DHT22;18778;47.610;9.776;2023-05-13T17:06:15;14.10;99.90
7920;DHT22;18778;47.610;9.776;2023-05-13T17:08:40;14.00;99.90
7920;DHT22;18778;47.610;9.776;2023-05-13T17:11:06;13.70;99.90
7920;DHT22;18778;47.610;9.776;2023-05-13T17:13:31;13.70;99.90
7920;DHT22;18778;47.610;9.776;2023-05-13T17:15:57;13.60;99.90
7920;DHT22;18778;47.610;9.776;2023-05-13T17:20:50;13.60;99.90
7920;DHT22;18778;47.610;9.776;2023-05-13T17:23:16;13.60;99.90
7920;DHT22;18778;47.610;9.776;2023-05-13T17:25:41;13.60;99.90
7920;DHT22;18778;47.610;9.776;2023-05-13T17:28:07;13.30;99.90
7920;DHT22;18778;47.610;9.776;2023-05-13T17:30:33;13.10;99.90
7920;DHT22;18778;47.610;9.776;2023-05-13T17:32:58;13.20;99.90
7920;DHT22;18778;47.610;9.776;2023-05-13T17:35:24;13.10;99.90
7920;DHT22;18778;47.610;9.776;2023-05-13T17:37:49;17.10;99.90
7920;DHT22;18778;47.610;9.776;2023-05-13T17:40:15;12.90;99.90
7920;DHT22;18778;47.610;9.776;2023-05-13T17:42:41;12.90;99.90
7920;DHT22;18778;47.610;9.776;2023-05-13T17:45:07;14.10;99.90
7920;DHT22;18778;47.610;9.776;2023-05-13T17:47:32;12.90;99.90
7920;DHT22;18778;47.610;9.776;2023-05-13T17:49:58;12.80;99.90
7920;DHT22;18778;47.610;9.776;2023-05-13T17:52:23;12.30;99.90
7920;DHT22;18778;47.610;9.776;2023-05-13T17:54:49;12.80;99.90
7920;DHT22;18778;47.610;9.776;2023-05-13T17:59:41;12.80;99.90
7920;DHT22;18778;47.610;9.776;2023-05-13T18:02:07;12.80;99.90
7920;DHT22;18778;47.610;9.776;2023-05-13T18:04:33;12.70;99.90
7920;DHT22;18778;47.610;9.776;2023-05-13T18:06:58;12.90;99.90
7920;DHT22;18778;47.610;9.776;2023-05-13T18:09:24;12.90;99.90
7920;DHT22;18778;47.610;9.776;2023-05-13T18:11:49;12.80;99.90
7920;DHT22;18778;47.610;9.776;2023-05-13T18:14:15;12.40;99.90
7920;DHT22;18778;47.610;9.776;2023-05-13T18:16:41;12.40;99.90
7920;DHT22;18778;47.610;9.776;2023-05-13T18:19:06;12.50;99.90
7920;DHT22;18778;47.610;9.776;2023-05-13T18:21:31;12.60;99.90
7920;DHT22;18778;47.610;9.776;2023-05-13T18:23:57;12.30;99.90
7920;DHT22;18778;47.610;9.776;2023-05-13T18:26:23;12.60;99.90
7920;DHT22;18778;47.610;9.776;2023-05-13T18:28:48;12.40;99.90
7920;DHT22;18778;47.610;9.776;2023-05-13T18:33:40;12.30;99.90
7920;DHT22;18778;47.610;9.776;2023-05-13T18:36:06;13.60;99.90
7920;DHT22;18778;47.610;9.776;2023-05-13T18:38:31;12.00;99.90
7920;DHT22;18778;47.610;9.776;2023-05-13T18:40:57;11.50;99.90
7920;DHT22;18778;47.610;9.776;2023-05-13T18:43:28;11.60;99.90
7920;DHT22;18778;47.610;9.776;2023-05-13T18:45:54;11.20;99.90
7920;DHT22;18778;47.610;9.776;2023-05-13T18:48:19;11.50;99.90
7920;DHT22;18778;47.610;9.776;2023-05-13T18:50:45;11.40;99.90
7920;DHT22;18778;47.610;9.776;2023-05-13T18:53:11;11.30;99.90
7920;DHT22;18778;47.610;9.776;2023-05-13T18:55:36;10.80;99.90
7920;DHT22;18778;47.610;9.776;2023-05-13T18:58:02;11.00;99.90
7920;DHT22;18778;47.610;9.776;2023-05-13T19:00:27;10.80;99.90
7920;DHT22;18778;47.610;9.776;2023-05-13T19:02:53;10.70;99.90
7920;DHT22;18778;47.610;9.776;2023-05-13T19:05:18;10.40;99.90
7920;DHT22;18778;47.610;9.776;2023-05-13T19:10:10;10.50;99.90
7920;DHT22;18778;47.610;9.776;2023-05-13T19:12:35;10.30;99.90
7920;DHT22;18778;47.610;9.776;2023-05-13T19:15:01;10.20;99.90
7920;DHT22;18778;47.610;9.776;2023-05-13T19:17:26;10.10;99.90
7920;DHT22;18778;47.610;9.776;2023-05-13T19:19:52;10.10;99.90
7920;DHT22;18778;47.610;9.776;2023-05-13T19:22:17;10.00;99.90
7920;DHT22;18778;47.610;9.776;2023-05-13T19:24:43;10.00;99.90
7920;DHT22;18778;47.610;9.776;2023-05-13T19:27:09;10.10;99.90
7920;DHT22;18778;47.610;9.776;2023-05-13T19:29:34;10.00;99.90
7920;DHT22;18778;47.610;9.776;2023-05-13T19:32:00;10.00;99.90
7920;DHT22;18778;47.610;9.776;2023-05-13T19:34:25;9.80;99.90
7920;DHT22;18778;47.610;9.776;2023-05-13T19:36:51;9.90;99.90
7920;DHT22;18778;47.610;9.776;2023-05-13T19:39:16;9.50;99.90
7920;DHT22;18778;47.610;9.776;2023-05-13T19:41:42;12.60;99.90
7920;DHT22;18778;47.610;9.776;2023-05-13T19:44:08;9.80;99.90
7920;DHT22;18778;47.610;9.776;2023-05-13T19:46:33;9.60;99.90
7920;DHT22;18778;47.610;9.776;2023-05-13T19:48:59;9.60;99.90
7920;DHT22;18778;47.610;9.776;2023-05-13T19:51:24;11.40;99.90
7920;DHT22;18778;47.610;9.776;2023-05-13T19:53:51;9.70;99.90
7920;DHT22;18778;47.610;9.776;2023-05-13T19:56:16;9.80;99.90
7920;DHT22;18778;47.610;9.776;2023-05-13T19:58:42;9.80;99.90
7920;DHT22;18778;47.610;9.776;2023-05-13T20:01:07;12.00;99.90
7920;DHT22;18778;47.610;9.776;2023-05-13T20:03:33;9.70;99.90
7920;DHT22;18778;47.610;9.776;2023-05-13T20:05:59;9.80;99.90
7920;DHT22;18778;47.610;9.776;2023-05-13T20:08:24;9.70;99.90
7920;DHT22;18778;47.610;9.776;2023-05-13T20:10:50;9.70;99.90
7920;DHT22;18778;47.610;9.776;2023-05-13T20:13:15;9.80;99.90
7920;DHT22;18778;47.610;9.776;2023-05-13T20:15:41;9.80;99.90
7920;DHT22;18778;47.610;9.776;2023-05-13T20:18:06;9.90;99.90
7920;DHT22;18778;47.610;9.776;2023-05-13T20:20:32;9.90;99.90
7920;DHT22;18778;47.610;9.776;2023-05-13T20:22:57;10.00;99.90
7920;DHT22;18778;47.610;9.776;2023-05-13T20:25:23;9.90;99.90
7920;DHT22;18778;47.610;9.776;2023-05-13T20:27:48;10.10;99.90
7920;DHT22;18778;47.610;9.776;2023-05-13T20:30:14;10.00;99.90
7920;DHT22;18778;47.610;9.776;2023-05-13T20:32:40;10.20;99.90
7920;DHT22;18778;47.610;9.776;2023-05-13T20:35:06;10.10;99.90
7920;DHT22;18778;47.610;9.776;2023-05-13T20:37:33;10.30;99.90
7920;DHT22;18778;47.610;9.776;2023-05-13T20:39:58;10.10;99.90
7920;DHT22;18778;47.610;9.776;2023-05-13T20:42:24;9.90;99.90
7920;DHT22;18778;47.610;9.776;2023-05-13T20:44:50;10.10;99.90
7920;DHT22;18778;47.610;9.776;2023-05-13T20:47:16;10.10;99.90
7920;DHT22;18778;47.610;9.776;2023-05-13T20:49:42;9.90;99.90
7920;DHT22;18778;47.610;9.776;2023-05-13T20:52:08;9.90;99.90
7920;DHT22;18778;47.610;9.776;2023-05-13T20:54:35;11.40;99.90
7920;DHT22;18778;47.610;9.776;2023-05-13T20:57:00;10.10;99.90
7920;DHT22;18778;47.610;9.776;2023-05-13T20:59:28;10.10;99.90
7920;DHT22;18778;47.610;9.776;2023-05-13T21:01:53;10.30;99.90
7920;DHT22;18778;47.610;9.776;2023-05-13T21:04:19;10.40;99.90
7920;DHT22;18778;47.610;9.776;2023-05-13T21:06:44;10.20;99.90
7920;DHT22;18778;47.610;9.776;2023-05-13T21:09:10;10.50;99.90
7920;DHT22;18778;47.610;9.776;2023-05-13T21:11:35;10.50;99.90
7920;DHT22;18778;47.610;9.776;2023-05-13T21:14:01;10.30;99.90
7920;DHT22;18778;47.610;9.776;2023-05-13T21:16:27;10.40;99.90
7920;DHT22;18778;47.610;9.776;2023-05-13T21:18:53;10.20;99.90
7920;DHT22;18778;47.610;9.776;2023-05-13T21:21:18;10.20;99.90
7920;DHT22;18778;47.610;9.776;2023-05-13T21:23:45;10.30;99.90
7920;DHT22;18778;47.610;9.776;2023-05-13T21:26:12;10.30;99.90
7920;DHT22;18778;47.610;9.776;2023-05-13T21:28:38;10.30;99.90
7920;DHT22;18778;47.610;9.776;2023-05-13T21:33:30;10.40;99.90
7920;DHT22;18778;47.610;9.776;2023-05-13T21:35:56;10.20;99.90
7920;DHT22;18778;47.610;9.776;2023-05-13T21:38:21;10.40;99.90
7920;DHT22;18778;47.610;9.776;2023-05-13T21:45:39;10.30;99.90
7920;DHT22;18778;47.610;9.776;2023-05-13T21:48:05;10.20;99.90